createdAt,value
2023-02-16T00:01:25.562Z,96642.03
2023-02-16T00:03:54.327Z,96645.13
2023-02-16T00:06:22.350Z,96645.78
2023-02-16T00:08:52.906Z,96648.88
2023-02-16T00:11:24.288Z,96651.84
2023-02-16T00:13:51.453Z,96661.00
2023-02-16T00:16:21.068Z,96658.38
2023-02-16T00:18:49.520Z,96655.94
2023-02-16T00:21:17.606Z,96649.88
2023-02-16T00:23:44.831Z,96654.78
2023-02-16T00:26:18.068Z,96653.16
2023-02-16T00:28:46.049Z,96651.50
2023-02-16T00:31:21.567Z,96648.88
2023-02-16T00:33:49.530Z,96646.78
2023-02-16T00:36:16.672Z,96655.59
2023-02-16T00:38:43.848Z,96650.06
2023-02-16T00:41:18.432Z,96641.41
2023-02-16T00:43:45.652Z,96638.44
2023-02-16T00:46:12.893Z,96637.31
2023-02-16T00:48:39.985Z,96639.75
2023-02-16T00:51:24.738Z,96638.94
2023-02-16T00:53:52.873Z,96637.00
2023-02-16T00:56:22.723Z,96641.69
2023-02-16T00:58:52.983Z,96639.03
2023-02-16T01:01:32.064Z,96636.13
2023-02-16T01:04:03.268Z,96637.75
2023-02-16T01:06:30.453Z,96639.56
2023-02-16T01:09:12.514Z,96634.16
2023-02-16T01:11:41.169Z,96640.06
2023-02-16T01:14:12.990Z,96638.94
2023-02-16T01:16:42.411Z,96636.16
2023-02-16T01:19:11.369Z,96636.34
2023-02-16T01:21:38.763Z,96629.94
2023-02-16T01:24:06.834Z,96629.94
2023-02-16T01:26:39.329Z,96639.25
2023-02-16T01:29:15.771Z,96646.13
2023-02-16T01:31:44.212Z,96644.31
2023-02-16T01:34:12.274Z,96641.34
2023-02-16T01:36:42.751Z,96644.78
2023-02-16T01:39:13.595Z,96644.28
2023-02-16T01:42:02.632Z,96646.88
2023-02-16T01:44:39.257Z,96647.50
2023-02-16T01:47:19.590Z,96643.88
2023-02-16T01:49:46.675Z,96642.28
2023-02-16T01:52:27.170Z,96632.50
2023-02-16T01:55:00.189Z,96633.97
2023-02-16T01:57:37.871Z,96632.50
2023-02-16T02:00:15.271Z,96628.91
2023-02-16T02:02:46.812Z,96627.28
2023-02-16T02:05:27.951Z,96619.59
2023-02-16T02:08:02.075Z,96615.53
2023-02-16T02:10:40.214Z,96612.22
2023-02-16T02:13:14.971Z,96612.09
2023-02-16T02:15:43.524Z,96617.50
2023-02-16T02:18:10.631Z,96622.06
2023-02-16T02:20:57.712Z,96617.97
2023-02-16T02:23:45.262Z,96615.53
2023-02-16T02:26:48.704Z,96613.88
2023-02-16T02:29:53.302Z,96614.19
2023-02-16T02:32:33.352Z,96616.94
2023-02-16T02:35:19.158Z,96617.09
2023-02-16T02:37:54.927Z,96614.81
2023-02-16T02:40:40.945Z,96618.56
2023-02-16T02:43:16.582Z,96623.78
2023-02-16T02:45:52.499Z,96608.91
2023-02-16T02:48:19.718Z,96603.69
2023-02-16T02:50:56.158Z,96608.59
2023-02-16T02:53:23.324Z,96615.47
2023-02-16T02:55:51.821Z,96614.19
2023-02-16T02:58:23.600Z,96599.94
2023-02-16T03:00:53.544Z,96604.19
2023-02-16T03:03:26.282Z,96606.16
2023-02-16T03:05:58.344Z,96597.03
2023-02-16T03:08:29.345Z,96602.50
2023-02-16T03:11:01.992Z,96593.97
2023-02-16T03:13:34.959Z,96585.81
2023-02-16T03:16:08.808Z,96586.13
2023-02-16T03:18:40.799Z,96590.88
2023-02-16T03:21:08.779Z,96590.56
2023-02-16T03:23:40.518Z,96592.22
2023-02-16T03:26:08.158Z,96601.53
2023-02-16T03:28:40.896Z,96594.47
2023-02-16T03:31:15.967Z,96602.66
2023-02-16T03:33:43.929Z,96595.31
2023-02-16T03:36:11.854Z,96600.94
2023-02-16T03:38:39.303Z,96593.06
2023-02-16T03:41:07.158Z,96603.66
2023-02-16T03:43:34.795Z,96599.38
2023-02-16T03:46:02.150Z,96594.78
2023-02-16T03:48:30.935Z,96597.50
2023-02-16T03:50:58.281Z,96598.53
2023-02-16T03:53:25.675Z,96603.13
2023-02-16T03:55:52.816Z,96601.28
2023-02-16T03:58:22.667Z,96607.69
2023-02-16T04:00:50.620Z,96607.09
2023-02-16T04:03:18.041Z,96609.34
2023-02-16T04:05:46.971Z,96620.72
2023-02-16T04:08:14.172Z,96619.63
2023-02-16T04:10:41.613Z,96619.22
2023-02-16T04:13:09.375Z,96614.69
2023-02-16T04:15:36.619Z,96619.25
2023-02-16T04:18:04.131Z,96616.66
2023-02-16T04:20:33.776Z,96617.66
2023-02-16T04:23:03.047Z,96621.25
2023-02-16T04:25:30.801Z,96628.09
2023-02-16T04:27:57.984Z,96632.69
2023-02-16T04:30:27.943Z,96637.56
2023-02-16T04:32:55.803Z,96639.88
2023-02-16T04:35:23.541Z,96627.97
2023-02-16T04:37:50.715Z,96631.66
2023-02-16T04:40:19.594Z,96627.59
2023-02-16T04:42:47.357Z,96640.31
2023-02-16T04:45:15.015Z,96641.22
2023-02-16T04:47:42.782Z,96637.59
2023-02-16T04:50:11.458Z,96643.34
2023-02-16T04:52:39.559Z,96635.16
2023-02-16T04:55:07.680Z,96638.59
2023-02-16T04:57:36.354Z,96637.94
2023-02-16T05:00:05.046Z,96630.19
2023-02-16T05:02:33.270Z,96637.28
2023-02-16T05:05:00.378Z,96637.41
2023-02-16T05:07:27.701Z,96640.00
2023-02-16T05:09:54.897Z,96630.47
2023-02-16T05:12:21.980Z,96636.06
2023-02-16T05:14:50.973Z,96640.84
2023-02-16T05:17:20.140Z,96635.00
2023-02-16T05:19:49.873Z,96640.09
2023-02-16T05:22:17.913Z,96637.00
2023-02-16T05:24:45.253Z,96632.72
2023-02-16T05:27:15.613Z,96632.25
2023-02-16T05:29:42.848Z,96633.56
2023-02-16T05:32:11.890Z,96628.00
2023-02-16T05:34:39.037Z,96626.50
2023-02-16T05:37:07.519Z,96636.31
2023-02-16T05:39:35.140Z,96637.47
2023-02-16T05:42:02.318Z,96633.88
2023-02-16T05:44:29.479Z,96636.00
2023-02-16T05:46:56.683Z,96644.28
2023-02-16T05:49:25.283Z,96654.19
2023-02-16T05:51:52.561Z,96653.41
2023-02-16T05:54:19.761Z,96655.25
2023-02-16T05:56:49.200Z,96652.81
2023-02-16T05:59:16.939Z,96652.75
2023-02-16T06:01:45.301Z,96655.94
2023-02-16T06:04:13.985Z,96659.59
2023-02-16T06:06:42.661Z,96657.16
2023-02-16T06:09:10.440Z,96661.50
2023-02-16T06:11:37.664Z,96651.69
2023-02-16T06:14:07.703Z,96652.97
2023-02-16T06:16:37.128Z,96650.75
2023-02-16T06:19:05.760Z,96655.75
2023-02-16T06:21:33.921Z,96659.34
2023-02-16T06:24:03.536Z,96653.94
2023-02-16T06:26:31.325Z,96665.78
2023-02-16T06:28:58.647Z,96666.28
2023-02-16T06:31:27.352Z,96664.69
2023-02-16T06:33:55.203Z,96671.63
2023-02-16T06:36:23.384Z,96675.59
2023-02-16T06:38:50.570Z,96674.78
2023-02-16T06:41:19.584Z,96671.16
2023-02-16T06:43:46.821Z,96668.38
2023-02-16T06:46:14.186Z,96663.81
2023-02-16T06:48:41.381Z,96676.94
2023-02-16T06:51:08.501Z,96681.88
2023-02-16T06:53:35.661Z,96674.50
2023-02-16T06:56:02.911Z,96679.88
2023-02-16T06:58:31.642Z,96679.09
2023-02-16T07:00:58.950Z,96686.47
2023-02-16T07:03:26.328Z,96684.34
2023-02-16T07:05:53.520Z,96684.13
2023-02-16T07:08:20.840Z,96689.69
2023-02-16T07:10:50.421Z,96696.81
2023-02-16T07:13:17.842Z,96692.34
2023-02-16T07:15:46.859Z,96691.13
2023-02-16T07:18:14.081Z,96698.34
2023-02-16T07:20:41.280Z,96705.03
2023-02-16T07:23:08.402Z,96705.88
2023-02-16T07:25:37.076Z,96692.47
2023-02-16T07:28:04.564Z,96686.97
2023-02-16T07:30:32.047Z,96688.00
2023-02-16T07:33:00.879Z,96695.06
2023-02-16T07:35:28.160Z,96693.78
2023-02-16T07:37:55.322Z,96687.84
2023-02-16T07:40:22.524Z,96695.47
2023-02-16T07:42:49.720Z,96696.78
2023-02-16T07:45:17.036Z,96702.13
2023-02-16T07:47:44.419Z,96702.81
2023-02-16T07:50:13.101Z,96698.06
2023-02-16T07:52:40.241Z,96701.91
2023-02-16T07:55:07.802Z,96702.94
2023-02-16T07:57:35.035Z,96702.09
2023-02-16T08:00:02.880Z,96703.91
2023-02-16T08:02:30.184Z,96701.06
2023-02-16T08:04:57.438Z,96701.25
2023-02-16T08:07:26.817Z,96707.03
2023-02-16T08:09:54.496Z,96706.16
2023-02-16T08:12:21.696Z,96705.44
2023-02-16T08:14:50.678Z,96705.19
2023-02-16T08:17:17.819Z,96706.56
2023-02-16T08:19:44.979Z,96704.78
2023-02-16T08:22:12.072Z,96716.91
2023-02-16T08:24:40.681Z,96706.53
2023-02-16T08:27:07.760Z,96701.75
2023-02-16T08:29:35.422Z,96703.44
2023-02-16T08:32:03.482Z,96704.97
2023-02-16T08:34:31.161Z,96701.84
2023-02-16T08:36:58.325Z,96703.88
2023-02-16T08:39:28.463Z,96701.59
2023-02-16T08:41:57.463Z,96707.47
2023-02-16T08:44:25.954Z,96720.09
2023-02-16T08:46:55.324Z,96718.47
2023-02-16T08:49:23.772Z,96711.56
2023-02-16T08:51:53.722Z,96717.88
2023-02-16T08:54:24.120Z,96716.84
2023-02-16T08:56:51.398Z,96724.19
2023-02-16T08:59:21.296Z,96725.19
2023-02-16T09:01:49.358Z,96721.94
2023-02-16T09:04:18.635Z,96722.38
2023-02-16T09:06:47.156Z,96724.81
2023-02-16T09:09:15.336Z,96732.94
2023-02-16T09:11:42.585Z,96735.38
2023-02-16T09:14:09.875Z,96727.22
2023-02-16T09:16:39.007Z,96723.97
2023-02-16T09:19:07.324Z,96719.09
2023-02-16T09:21:34.660Z,96722.97
2023-02-16T09:24:04.260Z,96724.38
2023-02-16T09:26:34.885Z,96719.53
2023-02-16T09:29:02.696Z,96722.16
2023-02-16T09:31:32.445Z,96726.63
2023-02-16T09:34:04.871Z,96732.75
2023-02-16T09:36:32.964Z,96734.16
2023-02-16T09:39:00.815Z,96735.34
2023-02-16T09:41:37.416Z,96736.59
2023-02-16T09:44:17.355Z,96734.13
2023-02-16T09:46:46.900Z,96736.78
2023-02-16T09:49:26.098Z,96739.16
2023-02-16T09:52:03.298Z,96737.16
2023-02-16T09:54:40.557Z,96736.06
2023-02-16T09:57:17.915Z,96735.13
2023-02-16T09:59:56.284Z,96733.13
2023-02-16T10:02:41.087Z,96731.06
2023-02-16T10:05:18.201Z,96736.38
2023-02-16T10:07:57.623Z,96731.13
2023-02-16T10:10:37.688Z,96729.94
2023-02-16T10:13:14.876Z,96729.53
2023-02-16T10:15:46.755Z,96735.59
2023-02-16T10:18:28.299Z,96733.06
2023-02-16T10:21:02.416Z,96736.25
2023-02-16T10:23:44.483Z,96733.59
2023-02-16T10:26:19.076Z,96739.09
2023-02-16T10:28:51.368Z,96739.31
2023-02-16T10:31:29.126Z,96735.47
2023-02-16T10:34:17.118Z,96745.28
2023-02-16T10:37:04.420Z,96747.53
2023-02-16T10:39:43.206Z,96756.78
2023-02-16T10:42:22.060Z,96755.16
2023-02-16T10:45:00.563Z,96755.88
2023-02-16T10:47:35.361Z,96746.75
2023-02-16T10:50:03.490Z,96738.75
2023-02-16T10:52:40.347Z,96727.56
2023-02-16T10:55:07.923Z,96728.34
2023-02-16T10:57:35.204Z,96723.81
2023-02-16T11:00:06.658Z,96728.25
2023-02-16T11:02:40.995Z,96730.38
2023-02-16T11:05:30.385Z,96727.44
2023-02-16T11:08:00.967Z,96724.13
2023-02-16T11:10:38.567Z,96722.25
2023-02-16T11:13:07.308Z,96716.41
2023-02-16T11:15:39.695Z,96727.16
2023-02-16T11:18:23.749Z,96728.97
2023-02-16T11:20:54.350Z,96729.88
2023-02-16T11:23:27.052Z,96718.81
2023-02-16T11:25:57.799Z,96722.03
2023-02-16T11:28:32.682Z,96720.09
2023-02-16T11:31:10.765Z,96713.47
2023-02-16T11:33:39.763Z,96714.13
2023-02-16T11:36:20.673Z,96711.44
2023-02-16T11:39:00.290Z,96700.97
2023-02-16T11:41:30.581Z,96700.69
2023-02-16T11:43:58.504Z,96696.66
2023-02-16T11:46:26.626Z,96688.81
2023-02-16T11:48:54.158Z,96686.81
2023-02-16T11:51:33.808Z,96683.44
2023-02-16T11:54:06.003Z,96681.88
2023-02-16T11:56:35.121Z,96684.06
2023-02-16T11:59:12.899Z,96676.41
2023-02-16T12:02:22.124Z,96681.25
2023-02-16T12:05:03.804Z,96677.91
2023-02-16T12:07:40.579Z,96678.66
2023-02-16T12:10:14.158Z,96675.47
2023-02-16T12:12:57.378Z,96678.47
2023-02-16T12:15:35.661Z,96678.16
2023-02-16T12:18:20.967Z,96668.38
2023-02-16T12:20:59.036Z,96666.44
2023-02-16T12:23:38.346Z,96659.91
2023-02-16T12:26:30.678Z,96658.63
2023-02-16T12:29:16.895Z,96660.00
2023-02-16T12:32:08.201Z,96646.91
2023-02-16T12:34:52.120Z,96650.44
2023-02-16T12:37:31.595Z,96641.19
2023-02-16T12:40:16.997Z,96651.91
2023-02-16T12:43:03.133Z,96638.78
2023-02-16T12:45:37.600Z,96639.22
2023-02-16T12:48:33.042Z,96642.94
2023-02-16T12:51:06.559Z,96644.13
2023-02-16T12:53:43.890Z,96640.81
2023-02-16T12:56:21.594Z,96641.06
2023-02-16T12:59:03.860Z,96648.31
2023-02-16T13:01:35.792Z,96629.56
2023-02-16T13:04:16.067Z,96624.41
2023-02-16T13:06:50.867Z,96622.63
2023-02-16T13:09:32.649Z,96615.13
2023-02-16T13:12:09.079Z,96621.78
2023-02-16T13:14:43.645Z,96612.94
2023-02-16T13:17:17.137Z,96606.72
2023-02-16T13:19:47.086Z,96609.28
2023-02-16T13:22:49.589Z,96603.34
2023-02-16T13:25:51.647Z,96594.97
2023-02-16T13:28:50.433Z,96593.06
2023-02-16T13:32:01.467Z,96590.00
2023-02-16T13:34:59.307Z,96584.81
2023-02-16T13:37:58.994Z,96579.94
2023-02-16T13:41:04.324Z,96582.41
2023-02-16T13:43:37.006Z,96585.13
2023-02-16T13:46:12.222Z,96579.38
2023-02-16T13:48:49.757Z,96574.06
2023-02-16T13:51:20.185Z,96579.88
2023-02-16T13:53:54.365Z,96573.78
2023-02-16T13:56:33.826Z,96571.16
2023-02-16T13:59:39.792Z,96568.78
2023-02-16T14:02:12.270Z,96566.25
2023-02-16T14:05:03.366Z,96562.75
2023-02-16T14:07:36.061Z,96557.16
2023-02-16T14:10:03.456Z,96560.72
2023-02-16T14:12:37.623Z,96559.38
2023-02-16T14:15:06.965Z,96564.19
2023-02-16T14:17:36.024Z,96560.06
2023-02-16T14:20:25.136Z,96558.41
2023-02-16T14:22:55.509Z,96565.34
2023-02-16T14:25:38.702Z,96562.09
2023-02-16T14:28:44.933Z,96565.34
2023-02-16T14:31:18.250Z,96559.16
2023-02-16T14:33:56.653Z,96557.72
2023-02-16T14:36:25.325Z,96565.63
2023-02-16T14:38:57.410Z,96558.47
2023-02-16T14:41:28.704Z,96562.16
2023-02-16T14:44:25.804Z,96560.72
2023-02-16T14:47:12.470Z,96554.44
2023-02-16T14:50:07.962Z,96551.59
2023-02-16T14:53:07.295Z,96547.59
2023-02-16T14:56:00.602Z,96550.72
2023-02-16T14:58:34.908Z,96549.63
2023-02-16T15:01:11.169Z,96545.59
2023-02-16T15:03:42.867Z,96550.88
2023-02-16T15:06:21.265Z,96541.75
2023-02-16T15:08:55.782Z,96548.69
2023-02-16T15:11:30.842Z,96550.50
2023-02-16T15:14:05.306Z,96547.25
2023-02-16T15:16:33.862Z,96537.91
2023-02-16T15:19:09.782Z,96541.97
2023-02-16T15:21:36.961Z,96551.13
2023-02-16T15:24:04.513Z,96547.88
2023-02-16T15:26:36.225Z,96548.66
2023-02-16T15:29:20.980Z,96550.09
2023-02-16T15:31:50.137Z,96544.22
2023-02-16T15:34:30.285Z,96547.28
2023-02-16T15:36:58.411Z,96546.84
2023-02-16T15:39:42.697Z,96542.56
2023-02-16T15:42:21.430Z,96546.44
2023-02-16T15:44:49.321Z,96544.41
2023-02-16T15:47:21.263Z,96548.25
2023-02-16T15:49:48.621Z,96548.25
2023-02-16T15:52:19.387Z,96543.59
2023-02-16T15:54:48.824Z,96543.78
2023-02-16T15:57:27.120Z,96546.03
2023-02-16T15:59:59.492Z,96540.94
2023-02-16T16:02:36.754Z,96536.06
2023-02-16T16:05:07.581Z,96533.03
2023-02-16T16:07:38.243Z,96535.06
2023-02-16T16:10:18.519Z,96531.81
2023-02-16T16:12:49.397Z,96533.84
2023-02-16T16:15:21.718Z,96532.63
2023-02-16T16:17:51.204Z,96536.47
2023-02-16T16:20:27.028Z,96532.63
2023-02-16T16:22:58.580Z,96533.25
2023-02-16T16:25:38.241Z,96527.38
2023-02-16T16:28:12.320Z,96528.56
2023-02-16T16:30:41.361Z,96526.94
2023-02-16T16:33:10.968Z,96521.47
2023-02-16T16:35:41.908Z,96518.00
2023-02-16T16:38:23.804Z,96525.09
2023-02-16T16:40:54.031Z,96530.81
2023-02-16T16:43:28.138Z,96531.81
2023-02-16T16:46:11.302Z,96534.44
2023-02-16T16:48:43.958Z,96537.72
2023-02-16T16:51:14.281Z,96536.25
2023-02-16T16:53:55.727Z,96532.81
2023-02-16T16:56:24.141Z,96532.19
2023-02-16T16:58:55.545Z,96539.72
2023-02-16T17:01:26.155Z,96545.59
2023-02-16T17:03:53.804Z,96544.34
2023-02-16T17:06:22.378Z,96544.72
2023-02-16T17:08:49.796Z,96549.97
2023-02-16T17:11:24.869Z,96551.97
2023-02-16T17:13:56.165Z,96552.72
2023-02-16T17:16:26.874Z,96563.66
2023-02-16T17:18:54.104Z,96554.13
2023-02-16T17:21:21.841Z,96557.16
2023-02-16T17:23:53.089Z,96565.84
2023-02-16T17:26:21.036Z,96557.31
2023-02-16T17:28:48.836Z,96556.53
2023-02-16T17:31:17.855Z,96553.28
2023-02-16T17:33:45.198Z,96560.72
2023-02-16T17:36:15.686Z,96561.34
2023-02-16T17:38:43.658Z,96560.34
2023-02-16T17:41:21.245Z,96561.78
2023-02-16T17:43:49.435Z,96559.94
2023-02-16T17:46:20.096Z,96560.78
2023-02-16T17:48:50.896Z,96567.06
2023-02-16T17:51:20.015Z,96571.25
2023-02-16T17:53:47.098Z,96573.28
2023-02-16T17:56:15.936Z,96574.31
2023-02-16T17:58:43.914Z,96568.00
2023-02-16T18:01:13.812Z,96578.53
2023-02-16T18:03:42.636Z,96567.97
2023-02-16T18:06:13.296Z,96574.88
2023-02-16T18:08:40.421Z,96578.03
2023-02-16T18:11:07.738Z,96586.94
2023-02-16T18:13:35.583Z,96588.50
2023-02-16T18:16:03.594Z,96588.72
2023-02-16T18:18:31.057Z,96586.22
2023-02-16T18:20:59.848Z,96580.75
2023-02-16T18:23:27.418Z,96582.75
2023-02-16T18:25:54.816Z,96595.72
2023-02-16T18:28:28.396Z,96601.59
2023-02-16T18:30:55.752Z,96594.84
2023-02-16T18:33:22.877Z,96601.63
2023-02-16T18:35:52.407Z,96598.13
2023-02-16T18:38:22.260Z,96605.91
2023-02-16T18:40:51.711Z,96610.69
2023-02-16T18:43:19.145Z,96610.38
2023-02-16T18:45:46.438Z,96610.31
2023-02-16T18:48:14.808Z,96620.53
2023-02-16T18:50:42.017Z,96617.88
2023-02-16T18:53:09.308Z,96617.25
2023-02-16T18:55:38.013Z,96623.47
2023-02-16T18:58:08.340Z,96623.69
2023-02-16T19:00:36.133Z,96624.72
2023-02-16T19:03:04.976Z,96625.81
2023-02-16T19:05:32.305Z,96631.09
2023-02-16T19:07:59.459Z,96632.28
2023-02-16T19:10:26.962Z,96628.69
2023-02-16T19:12:55.705Z,96630.06
2023-02-16T19:15:23.330Z,96632.22
2023-02-16T19:17:50.586Z,96626.72
2023-02-16T19:20:18.074Z,96633.50
2023-02-16T19:22:45.824Z,96644.25
2023-02-16T19:25:13.765Z,96642.28
2023-02-16T19:27:40.924Z,96655.28
2023-02-16T19:30:10.755Z,96656.03
2023-02-16T19:32:37.978Z,96659.94
2023-02-16T19:35:05.648Z,96661.22
2023-02-16T19:37:32.994Z,96666.84
2023-02-16T19:40:00.401Z,96664.78
2023-02-16T19:42:27.680Z,96660.25
2023-02-16T19:44:55.019Z,96660.06
2023-02-16T19:47:23.658Z,96667.84
2023-02-16T19:49:50.802Z,96664.44
2023-02-16T19:52:18.012Z,96668.22
2023-02-16T19:54:45.435Z,96668.59
2023-02-16T19:57:12.664Z,96672.47
2023-02-16T19:59:40.003Z,96667.41
2023-02-16T20:02:07.415Z,96670.31
2023-02-16T20:04:36.064Z,96676.00
2023-02-16T20:07:03.659Z,96682.16
2023-02-16T20:09:30.835Z,96676.72
2023-02-16T20:11:57.997Z,96680.63
2023-02-16T20:14:27.420Z,96685.34
2023-02-16T20:16:54.579Z,96686.00
2023-02-16T20:19:21.737Z,96682.97
2023-02-16T20:21:50.438Z,96686.78
2023-02-16T20:24:17.598Z,96692.13
2023-02-16T20:26:46.320Z,96693.47
2023-02-16T20:29:14.960Z,96695.41
2023-02-16T20:31:47.057Z,96686.97
2023-02-16T20:34:15.062Z,96692.72
2023-02-16T20:36:42.810Z,96689.84
2023-02-16T20:39:11.776Z,96690.63
2023-02-16T20:41:39.823Z,96686.81
2023-02-16T20:44:07.500Z,96689.34
2023-02-16T20:46:35.279Z,96700.38
2023-02-16T20:49:03.040Z,96694.03
2023-02-16T20:51:30.876Z,96698.16
2023-02-16T20:54:00.556Z,96695.25
2023-02-16T20:56:29.520Z,96686.50
2023-02-16T20:58:58.355Z,96687.00
2023-02-16T21:01:28.557Z,96690.88
2023-02-16T21:03:57.348Z,96685.66
2023-02-16T21:06:24.851Z,96682.31
2023-02-16T21:08:52.115Z,96692.41
2023-02-16T21:11:19.616Z,96698.47
2023-02-16T21:13:49.040Z,96700.50
2023-02-16T21:16:16.713Z,96697.16
2023-02-16T21:18:44.119Z,96689.16
2023-02-16T21:21:12.696Z,96695.03
2023-02-16T21:23:39.904Z,96694.66
2023-02-16T21:26:07.499Z,96697.22
2023-02-16T21:28:34.916Z,96687.06
2023-02-16T21:31:05.879Z,96694.75
2023-02-16T21:33:33.358Z,96688.94
2023-02-16T21:36:05.552Z,96690.78
2023-02-16T21:38:34.697Z,96696.28
2023-02-16T21:41:03.478Z,96695.38
2023-02-16T21:43:30.556Z,96692.56
2023-02-16T21:46:01.611Z,96690.13
2023-02-16T21:48:30.419Z,96697.63
2023-02-16T21:51:01.786Z,96697.88
2023-02-16T21:53:29.817Z,96695.28
2023-02-16T21:55:57.115Z,96696.16
2023-02-16T21:58:25.276Z,96688.59
2023-02-16T22:00:53.552Z,96702.34
2023-02-16T22:03:20.902Z,96695.34
2023-02-16T22:05:49.510Z,96698.84
2023-02-16T22:08:16.776Z,96702.19
2023-02-16T22:10:44.215Z,96693.97
2023-02-16T22:13:11.567Z,96698.47
2023-02-16T22:15:39.313Z,96704.81
2023-02-16T22:18:06.634Z,96693.22
2023-02-16T22:20:34.034Z,96700.41
2023-02-16T22:23:03.217Z,96703.25
2023-02-16T22:25:30.395Z,96704.97
2023-02-16T22:27:57.597Z,96712.22
2023-02-16T22:30:24.753Z,96714.88
2023-02-16T22:32:51.870Z,96714.31
2023-02-16T22:35:19.058Z,96715.00
2023-02-16T22:37:46.304Z,96722.56
2023-02-16T22:40:15.620Z,96722.78
2023-02-16T22:42:42.762Z,96728.91
2023-02-16T22:45:10.799Z,96728.56
2023-02-16T22:47:37.924Z,96729.41
2023-02-16T22:50:06.835Z,96725.66
2023-02-16T22:52:34.000Z,96730.13
2023-02-16T22:55:01.140Z,96730.28
2023-02-16T22:57:29.824Z,96727.47
2023-02-16T22:59:56.943Z,96731.38
2023-02-16T23:02:24.621Z,96734.03
2023-02-16T23:04:55.281Z,96726.50
2023-02-16T23:07:22.401Z,96728.44
2023-02-16T23:09:49.525Z,96735.00
2023-02-16T23:12:16.732Z,96735.97
2023-02-16T23:14:45.441Z,96740.56
2023-02-16T23:17:12.641Z,96738.13
2023-02-16T23:19:39.822Z,96723.19
2023-02-16T23:22:07.024Z,96733.22
2023-02-16T23:24:34.320Z,96733.38
2023-02-16T23:27:01.443Z,96723.69
2023-02-16T23:29:28.653Z,96727.56
2023-02-16T23:31:57.246Z,96727.72
2023-02-16T23:34:24.599Z,96725.41
2023-02-16T23:36:51.810Z,96722.28
2023-02-16T23:39:19.382Z,96715.88
2023-02-16T23:41:46.839Z,96722.44
2023-02-16T23:44:15.198Z,96720.00
2023-02-16T23:46:42.557Z,96719.16
2023-02-16T23:49:11.160Z,96720.00
2023-02-16T23:51:38.296Z,96721.75
2023-02-16T23:54:05.658Z,96719.78
2023-02-16T23:56:32.797Z,96721.69
2023-02-16T23:59:01.617Z,96722.13
